Time;durP1;ratioP1;P1;durP2;ratioP2;P2;SDS_P1;SDS_P2;PMS_P1;PMS_P2;Temp;Humidity;BMP_temperature;BMP_pressure;BME280_temperature;BME280_humidity;BME280_pressure;Samples;Min_cycle;Max_cycle;Signal;HPM_P1;HPM_P2
2022/03/02 00:01:15;;;;;;;10.98;2.40;;;;;;;22.22;54.84;100581.47;7311592;19;130402;-40
2022/03/02 00:03:41;;;;;;;17.63;3.47;;;;;;;22.23;54.86;100587.53;7311667;19;129476;-41
2022/03/02 00:06:06;;;;;;;31.55;5.05;;;;;;;22.29;53.90;100581.81;7310409;19;129381;-40
2022/03/02 00:08:31;;;;;;;16.17;3.13;;;;;;;22.38;53.61;100589.78;7312232;19;132482;-40
2022/03/02 00:10:57;;;;;;;26.40;4.28;;;;;;;22.52;53.79;100576.44;7312264;19;145646;-38
2022/03/02 00:13:22;;;;;;;19.52;3.38;;;;;;;22.58;53.11;100559.41;7309076;19;131100;-39
2022/03/02 00:15:48;;;;;;;19.80;3.78;;;;;;;22.75;53.02;100580.72;7310822;19;153018;-38
2022/03/02 00:18:14;;;;;;;28.53;4.90;;;;;;;22.93;52.22;100581.84;7311727;19;130431;-40
2022/03/02 00:20:39;;;;;;;23.23;3.83;;;;;;;23.04;51.95;100588.81;7311602;19;130190;-39
2022/03/02 00:23:04;;;;;;;11.23;2.65;;;;;;;23.14;51.43;100590.56;7308623;19;154628;-38
2022/03/02 00:25:29;;;;;;;19.48;3.63;;;;;;;23.17;51.50;100589.50;7308794;19;129493;-39
2022/03/02 00:27:55;;;;;;;13.05;2.85;;;;;;;23.11;51.34;100584.75;7310986;19;129542;-40
2022/03/02 00:30:22;;;;;;;23.52;4.72;;;;;;;23.04;51.84;100584.41;7308843;19;158398;-40
2022/03/02 00:32:47;;;;;;;15.98;2.92;;;;;;;23.02;51.23;100581.06;7311840;19;128749;-39
2022/03/02 00:35:13;;;;;;;31.40;5.70;;;;;;;22.90;52.17;100579.47;7307757;19;154057;-37
2022/03/02 00:37:38;;;;;;;12.97;2.57;;;;;;;22.84;52.26;100576.50;7311517;19;147671;-38
2022/03/02 00:40:04;;;;;;;13.25;2.90;;;;;;;22.75;52.64;100572.00;7309545;19;158617;-40
2022/03/02 00:42:30;;;;;;;14.52;3.22;;;;;;;22.67;52.79;100566.53;7309380;19;128865;-40
2022/03/02 00:44:56;;;;;;;33.88;5.95;;;;;;;22.49;52.84;100544.41;7303944;19;130476;-38
2022/03/02 00:47:21;;;;;;;18.33;3.33;;;;;;;22.51;53.11;100547.72;7297006;19;129281;-38
2022/03/02 00:49:47;;;;;;;16.90;3.05;;;;;;;22.45;53.38;100545.59;7312532;19;130478;-40
2022/03/02 00:52:14;;;;;;;27.02;4.65;;;;;;;22.40;53.47;100547.72;7307945;19;128846;-40
2022/03/02 00:54:39;;;;;;;22.95;3.80;;;;;;;22.34;54.37;100541.22;7307398;19;130140;-40
2022/03/02 00:57:04;;;;;;;18.55;3.55;;;;;;;22.30;54.08;100531.91;7307705;19;129774;-39
2022/03/02 00:59:30;;;;;;;14.40;3.03;;;;;;;22.31;54.51;100535.38;7310062;19;130739;-39
2022/03/02 01:01:55;;;;;;;12.50;2.40;;;;;;;22.28;54.78;100530.38;7310350;19;129446;-39
2022/03/02 01:04:20;;;;;;;17.25;3.55;;;;;;;22.25;54.98;100520.97;7307343;19;154008;-39
2022/03/02 01:06:46;;;;;;;14.50;2.75;;;;;;;22.24;55.38;100523.72;7304573;19;152546;-41
2022/03/02 01:09:11;;;;;;;13.25;2.50;;;;;;;22.29;55.92;100530.25;7310752;19;129700;-40
2022/03/02 01:11:37;;;;;;;22.98;3.58;;;;;;;22.27;56.00;100521.69;7307540;19;129097;-40
2022/03/02 01:14:02;;;;;;;12.65;2.60;;;;;;;22.28;56.04;100515.47;7307474;19;154072;-39
2022/03/02 01:16:28;;;;;;;18.23;3.58;;;;;;;22.33;55.72;100507.28;7305959;19;158352;-38
2022/03/02 01:18:53;;;;;;;13.43;2.75;;;;;;;22.33;55.44;100499.41;7310737;19;129359;-37
2022/03/02 01:21:19;;;;;;;12.18;2.38;;;;;;;22.38;55.97;100505.13;7309665;19;154718;-38
2022/03/02 01:23:44;;;;;;;19.42;3.42;;;;;;;22.41;55.67;100494.38;7307914;19;129737;-38
2022/03/02 01:26:09;;;;;;;38.90;5.55;;;;;;;22.41;55.46;100489.16;7306254;19;140118;-39
2022/03/02 01:28:35;;;;;;;23.52;4.10;;;;;;;22.40;55.01;100490.94;7306393;19;158437;-38
2022/03/02 01:31:00;;;;;;;6.38;2.05;;;;;;;22.31;56.08;100490.84;7310101;19;141968;-38
2022/03/02 01:33:26;;;;;;;18.00;3.50;;;;;;;22.09;55.58;100473.38;7304226;19;155113;-38
2022/03/02 01:35:51;;;;;;;13.05;2.63;;;;;;;22.13;54.83;100490.50;7309606;19;130233;-38
2022/03/02 01:38:16;;;;;;;32.78;5.32;;;;;;;22.18;54.91;100492.78;7309426;19;129952;-38
2022/03/02 01:40:42;;;;;;;32.42;4.93;;;;;;;22.25;54.60;100493.94;7313798;19;154509;-38
2022/03/02 01:43:07;;;;;;;19.60;3.53;;;;;;;22.32;54.16;100495.97;7315150;19;129231;-37
2022/03/02 01:45:32;;;;;;;26.80;4.28;;;;;;;22.44;53.72;100500.22;7313290;19;130201;-38
2022/03/02 01:48:00;;;;;;;9.13;2.10;;;;;;;22.58;53.05;100486.00;7312967;19;158461;-39
2022/03/02 01:50:25;;;;;;;23.25;3.67;;;;;;;22.65;52.55;100477.53;7315203;19;132131;-38
2022/03/02 01:52:50;;;;;;;17.77;3.30;;;;;;;22.82;52.62;100495.38;7316205;19;129518;-38
2022/03/02 01:55:16;;;;;;;29.25;5.50;;;;;;;22.95;52.37;100498.63;7313748;19;159173;-39
2022/03/02 01:57:42;;;;;;;29.65;4.65;;;;;;;23.10;52.00;100499.16;7315217;19;130419;-38
2022/03/02 02:00:10;;;;;;;15.07;3.15;;;;;;;23.19;51.47;100490.50;7315124;19;129561;-37
2022/03/02 02:02:35;;;;;;;16.50;2.90;;;;;;;23.24;51.62;100488.31;7316045;19;129776;-39
2022/03/02 02:05:01;;;;;;;18.60;3.50;;;;;;;23.23;50.70;100473.56;7313418;19;130595;-41
2022/03/02 02:07:27;;;;;;;11.38;2.47;;;;;;;23.18;51.30;100476.56;7315597;19;132718;-38
2022/03/02 02:09:56;;;;;;;24.38;4.72;;;;;;;23.11;51.84;100478.03;7316374;19;129331;-39
2022/03/02 02:12:21;;;;;;;24.00;4.47;;;;;;;23.05;51.83;100490.84;7315503;19;130824;-38
2022/03/02 02:14:46;;;;;;;16.60;3.33;;;;;;;22.99;52.08;100481.66;7311824;19;159049;-39
2022/03/02 02:17:12;;;;;;;16.40;3.22;;;;;;;22.87;51.95;100477.44;7312273;19;158450;-38
2022/03/02 02:19:37;;;;;;;22.67;3.80;;;;;;;22.77;52.72;100470.47;7314114;19;155157;-37
2022/03/02 02:22:02;;;;;;;17.45;3.25;;;;;;;22.65;53.21;100467.06;7314503;19;153546;-38
2022/03/02 02:24:28;;;;;;;16.60;3.28;;;;;;;22.59;52.83;100466.72;7313651;19;130685;-37
2022/03/02 02:26:54;;;;;;;20.88;3.58;;;;;;;22.50;53.43;100470.06;7309801;19;158279;-38
2022/03/02 02:29:21;;;;;;;17.83;3.60;;;;;;;22.43;53.41;100463.66;7315036;19;128903;-38
2022/03/02 02:31:47;;;;;;;24.10;4.10;;;;;;;22.39;53.68;100464.84;7315944;19;129479;-40
2022/03/02 02:34:14;;;;;;;18.77;3.80;;;;;;;22.27;54.15;100460.59;7311662;19;130179;-37
2022/03/02 02:36:40;;;;;;;22.83;4.03;;;;;;;22.20;54.36;100441.06;7315246;19;129393;-38
2022/03/02 02:39:05;;;;;;;21.73;3.72;;;;;;;22.26;55.01;100456.31;7314734;19;129859;-38
2022/03/02 02:41:30;;;;;;;14.95;2.60;;;;;;;22.14;55.09;100441.56;7315075;19;153066;-38
2022/03/02 02:43:56;;;;;;;17.10;3.08;;;;;;;22.21;55.00;100440.13;7312915;19;130190;-37
2022/03/02 02:46:21;;;;;;;38.72;6.35;;;;;;;22.20;55.33;100448.94;7298261;19;131973;-40
2022/03/02 02:48:46;;;;;;;22.92;4.28;;;;;;;22.22;55.58;100452.28;7306882;19;151330;-38
2022/03/02 02:51:11;;;;;;;17.47;3.13;;;;;;;22.15;55.57;100435.41;7313134;19;129810;-38
2022/03/02 02:53:37;;;;;;;24.48;4.15;;;;;;;22.20;55.21;100446.31;7311984;19;159107;-38
2022/03/02 02:56:02;;;;;;;23.67;3.90;;;;;;;22.12;55.19;100439.09;7312122;19;153509;-39
2022/03/02 02:58:28;;;;;;;26.63;4.47;;;;;;;22.15;54.79;100441.44;7312438;19;129153;-39
2022/03/02 03:00:53;;;;;;;16.00;2.97;;;;;;;22.20;54.39;100439.28;7311567;19;154081;-38
2022/03/02 03:03:19;;;;;;;19.42;3.70;;;;;;;22.31;53.62;100447.16;7311869;19;139261;-39
2022/03/02 03:05:45;;;;;;;24.05;3.92;;;;;;;22.42;53.57;100430.53;7313112;19;130653;-37
2022/03/02 03:08:11;;;;;;;25.50;4.45;;;;;;;22.54;53.47;100417.31;7313676;19;131145;-39
2022/03/02 03:10:39;;;;;;;18.25;3.35;;;;;;;22.66;52.63;100421.53;7314009;19;129390;-38
2022/03/02 03:13:05;;;;;;;12.05;2.65;;;;;;;22.83;52.22;100428.00;7311977;19;130180;-38
2022/03/02 03:15:31;;;;;;;15.10;2.85;;;;;;;22.92;52.03;100422.00;7313918;19;129847;-38
2022/03/02 03:17:56;;;;;;;18.45;3.28;;;;;;;23.07;51.50;100420.72;7311632;19;129297;-38
2022/03/02 03:20:26;;;;;;;10.73;2.63;;;;;;;23.13;51.73;100404.47;7314206;19;129047;-37
2022/03/02 03:22:53;;;;;;;19.08;3.30;;;;;;;23.29;51.51;100425.84;7313159;19;130661;-38
2022/03/02 03:25:18;;;;;;;;;;;;;;;23.29;50.93;100425.03;7311910;19;132588;-39
2022/03/02 03:27:44;;;;;;;32.03;5.05;;;;;;;23.31;51.17;100416.03;7312737;19;129000;-38
2022/03/02 03:30:11;;;;;;;24.87;4.53;;;;;;;23.25;50.56;100408.66;7312604;19;129352;-39
2022/03/02 03:32:37;;;;;;;10.48;2.65;;;;;;;23.12;51.33;100393.13;7314287;19;129789;-39
2022/03/02 03:35:03;;;;;;;12.35;2.55;;;;;;;23.10;51.06;100409.97;7313457;19;130266;-38
2022/03/02 03:37:29;;;;;;;16.20;3.17;;;;;;;22.89;52.11;100391.63;7311343;19;130232;-42
2022/03/02 03:39:54;;;;;;;12.35;2.60;;;;;;;22.88;52.38;100410.09;7309405;19;154646;-38
2022/03/02 03:42:20;;;;;;;15.50;2.95;;;;;;;22.82;52.15;100405.38;7311795;19;159142;-38
2022/03/02 03:44:45;;;;;;;24.17;3.83;;;;;;;22.69;52.88;100404.72;7308148;19;158229;-40
2022/03/02 03:47:10;;;;;;;16.93;3.27;;;;;;;22.61;52.59;100391.44;7307332;19;154274;-38
2022/03/02 03:49:35;;;;;;;12.70;2.93;;;;;;;22.55;52.88;100389.31;7311835;19;129206;-38
2022/03/02 03:52:02;;;;;;;15.40;2.85;;;;;;;22.49;53.41;100397.66;7313863;19;130553;-40
2022/03/02 03:54:27;;;;;;;19.17;3.30;;;;;;;22.49;53.14;100387.16;7310108;19;130925;-40
2022/03/02 03:56:53;;;;;;;15.60;2.90;;;;;;;22.69;53.00;100391.63;7309430;19;150105;-40
2022/03/02 03:59:18;;;;;;;15.82;2.90;;;;;;;23.08;52.09;100390.91;7312051;19;128954;-39
2022/03/02 04:01:43;;;;;;;22.38;4.15;;;;;;;23.47;50.44;100389.31;7306396;19;158912;-41
2022/03/02 04:04:08;;;;;;;19.38;3.72;;;;;;;23.80;49.76;100399.53;7310146;19;158425;-40
2022/03/02 04:06:33;;;;;;;25.33;4.03;;;;;;;24.11;48.98;100391.44;7306312;19;154845;-36
2022/03/02 04:08:59;;;;;;;9.63;2.53;;;;;;;24.39;48.32;100388.00;7310425;19;154167;-39
2022/03/02 04:11:24;;;;;;;10.43;2.55;;;;;;;24.60;47.63;100385.22;7310655;19;129408;-39
2022/03/02 04:13:50;;;;;;;21.27;3.90;;;;;;;24.81;47.40;100385.13;7309638;19;158638;-39
2022/03/02 04:16:15;;;;;;;15.03;3.03;;;;;;;24.91;47.33;100383.25;7312942;19;129672;-37
2022/03/02 04:18:40;;;;;;;25.27;4.17;;;;;;;25.07;46.07;100386.16;7311366;19;129019;-37
2022/03/02 04:21:06;;;;;;;18.95;3.30;;;;;;;25.16;46.15;100377.38;7310254;19;158390;-37
2022/03/02 04:23:32;;;;;;;24.83;4.53;;;;;;;25.17;46.57;100373.78;7309600;19;129514;-38
2022/03/02 04:25:57;;;;;;;20.77;3.83;;;;;;;25.22;46.14;100376.81;7309811;19;129275;-39
2022/03/02 04:28:23;;;;;;;15.35;2.67;;;;;;;25.25;46.30;100368.63;7310070;19;130076;-38
2022/03/02 04:30:49;;;;;;;21.15;3.40;;;;;;;25.26;45.66;100383.44;7311645;19;131277;-39
2022/03/02 04:33:14;;;;;;;10.30;2.77;;;;;;;25.28;45.87;100370.97;7308827;19;149639;-39
2022/03/02 04:35:40;;;;;;;31.77;4.90;;;;;;;25.20;46.10;100361.19;7311015;19;129115;-38
2022/03/02 04:38:06;;;;;;;17.40;3.23;;;;;;;25.21;46.12;100368.09;7309499;19;129032;-38
2022/03/02 04:40:32;;;;;;;14.63;2.88;;;;;;;25.20;46.06;100355.91;7312526;19;130155;-37
2022/03/02 04:42:57;;;;;;;13.20;2.57;;;;;;;25.12;46.71;100362.88;7309658;19;130944;-40
2022/03/02 04:45:27;;;;;;;40.70;6.83;;;;;;;25.10;46.45;100356.91;7305776;19;129818;-39
2022/03/02 04:47:54;;;;;;;15.90;3.40;;;;;;;24.97;46.35;100351.97;7299651;19;130823;-39
2022/03/02 04:50:20;;;;;;;56.30;9.10;;;;;;;24.92;47.00;100363.91;7308804;19;130351;-38
2022/03/02 04:52:46;;;;;;;21.23;4.03;;;;;;;24.81;46.72;100357.00;7309482;19;131156;-40
2022/03/02 04:55:12;;;;;;;50.95;8.43;;;;;;;24.67;47.40;100365.31;7308152;19;129220;-38
2022/03/02 04:57:42;;;;;;;24.75;4.13;;;;;;;24.51;47.57;100358.97;7309662;19;129268;-40
2022/03/02 05:00:32;;;;;;;22.55;3.80;;;;;;;24.23;48.17;100348.31;7310509;19;130615;-40
2022/03/02 05:02:58;;;;;;;12.60;2.95;;;;;;;24.18;48.61;100363.66;7309566;19;130363;-41
2022/03/02 05:05:25;;;;;;;;;;;;;;;23.99;49.05;100363.66;7307414;19;128953;-39
2022/03/02 05:07:52;;;;;;;35.67;5.43;;;;;;;23.90;49.54;100361.00;7307374;19;129298;-40
2022/03/02 05:10:19;;;;;;;18.83;3.70;;;;;;;23.80;49.33;100358.31;7310624;19;129448;-41
2022/03/02 05:12:44;;;;;;;29.65;4.70;;;;;;;23.65;50.38;100362.28;7310312;19;129911;-40
2022/03/02 05:15:12;;;;;;;40.45;6.10;;;;;;;23.54;50.54;100369.44;7324273;19;130041;-46
2022/03/02 05:17:39;;;;;;;23.45;3.97;;;;;;;23.44;50.27;100365.94;7323417;19;129427;-41
2022/03/02 05:20:05;;;;;;;;;;;;;;;23.23;50.89;100374.69;7324652;19;130765;-40
2022/03/02 05:22:30;;;;;;;18.17;3.65;;;;;;;23.24;49.95;100371.09;7322367;19;130384;-39
2022/03/02 05:24:55;;;;;;;19.17;3.63;;;;;;;23.11;50.53;100369.66;7324107;19;141882;-40
2022/03/02 05:27:21;;;;;;;21.25;3.55;;;;;;;23.05;51.83;100370.19;7317365;19;154005;-40
2022/03/02 05:29:46;;;;;;;30.60;4.75;;;;;;;22.98;51.81;100369.88;7323450;19;129668;-40
2022/03/02 05:32:11;;;;;;;26.65;4.78;;;;;;;22.83;51.74;100359.84;7320891;19;159416;-40
2022/03/02 05:34:37;;;;;;;13.07;3.13;;;;;;;22.86;52.51;100373.53;7320036;19;155021;-39
2022/03/02 05:37:02;;;;;;;25.45;4.28;;;;;;;22.84;52.89;100372.00;7319287;19;154044;-40
2022/03/02 05:39:28;;;;;;;21.95;3.60;;;;;;;22.79;52.98;100363.69;7323055;19;129273;-40
2022/03/02 05:41:53;;;;;;;11.80;2.90;;;;;;;22.65;52.58;100343.03;7323201;19;130986;-39
2022/03/02 05:44:19;;;;;;;22.92;4.13;;;;;;;22.70;53.11;100369.69;7321509;19;130153;-39
2022/03/02 05:46:44;;;;;;;19.58;4.00;;;;;;;22.68;52.98;100371.59;7318120;19;147666;-39
2022/03/02 05:49:10;;;;;;;22.73;4.18;;;;;;;22.68;53.59;100371.59;7322714;19;129937;-39
2022/03/02 05:51:36;;;;;;;18.33;3.50;;;;;;;22.66;52.99;100357.81;7323407;19;130902;-40
2022/03/02 05:54:03;;;;;;;16.57;3.27;;;;;;;22.60;53.59;100363.53;7322521;19;129937;-40
2022/03/02 05:56:29;;;;;;;17.52;3.28;;;;;;;22.55;53.79;100360.47;7323588;19;128909;-37
2022/03/02 05:58:55;;;;;;;16.20;3.33;;;;;;;22.56;53.58;100364.78;7323552;19;130302;-38
2022/03/02 06:01:20;;;;;;;18.58;3.53;;;;;;;22.55;53.94;100369.19;7324920;19;131208;-38
2022/03/02 06:03:46;;;;;;;27.70;4.80;;;;;;;22.54;53.87;100370.16;7323152;19;129104;-39
2022/03/02 06:06:12;;;;;;;18.33;3.45;;;;;;;22.53;53.58;100365.00;7322701;19;129346;-40
2022/03/02 06:08:37;;;;;;;18.48;3.67;;;;;;;22.54;53.23;100380.63;7322954;19;129081;-40
2022/03/02 06:11:03;;;;;;;15.52;3.30;;;;;;;22.56;53.61;100375.25;7324584;19;131332;-40
2022/03/02 06:13:29;;;;;;;15.48;3.67;;;;;;;22.57;52.95;100372.50;7322884;19;128747;-38
2022/03/02 06:15:55;;;;;;;18.23;3.75;;;;;;;22.63;53.18;100371.16;7323321;19;130607;-39
2022/03/02 06:18:20;;;;;;;15.40;3.05;;;;;;;22.71;52.60;100366.94;7322620;19;131283;-40
2022/03/02 06:20:50;;;;;;;28.67;4.90;;;;;;;22.79;51.99;100379.41;7322609;19;130622;-40
2022/03/02 06:23:15;;;;;;;17.38;3.90;;;;;;;22.85;52.20;100377.13;7321388;19;129615;-40
2022/03/02 06:25:41;;;;;;;24.95;4.90;;;;;;;22.95;51.97;100379.78;7311604;19;129025;-39
2022/03/02 06:28:06;;;;;;;21.40;4.05;;;;;;;23.07;51.22;100376.13;7314786;19;130679;-40
2022/03/02 06:30:31;;;;;;;16.98;3.08;;;;;;;23.14;51.25;100385.13;7313609;19;158513;-37
2022/03/02 06:32:56;;;;;;;14.50;3.30;;;;;;;23.20;51.66;100379.38;7313268;19;131708;-40
2022/03/02 06:35:22;;;;;;;20.10;3.65;;;;;;;23.32;51.19;100373.09;7313608;19;154067;-39
2022/03/02 06:37:47;;;;;;;60.60;9.57;;;;;;;23.35;50.96;100374.63;7304387;19;158603;-42
2022/03/02 06:40:13;;;;;;;20.90;4.50;;;;;;;23.39;49.03;100387.34;7311405;19;129834;-38
2022/03/02 06:43:18;;;;;;;33.40;6.07;;;;;;;23.42;49.11;100387.09;7313213;19;129024;-39
2022/03/02 06:45:52;;;;;;;31.63;6.05;;;;;;;23.51;50.03;100388.09;7310534;19;128821;-39
2022/03/02 06:48:22;;;;;;;20.63;3.92;;;;;;;23.49;50.15;100374.25;7313743;19;129124;-40
2022/03/02 06:50:51;;;;;;;22.65;4.65;;;;;;;23.57;49.94;100383.13;7312403;19;130695;-36
2022/03/02 06:53:18;;;;;;;20.90;4.63;;;;;;;23.58;49.46;100384.81;7308045;19;129870;-40
2022/03/02 06:55:43;;;;;;;23.60;5.18;;;;;;;23.56;49.43;100391.13;7312473;19;129716;-39
2022/03/02 06:58:11;;;;;;;28.90;4.93;;;;;;;23.50;49.68;100381.19;7310931;19;130142;-40
2022/03/02 07:00:38;;;;;;;18.25;3.97;;;;;;;23.45;50.43;100386.84;7314405;19;132110;-40
2022/03/02 07:03:10;;;;;;;16.38;3.33;;;;;;;23.40;50.39;100375.06;7309456;19;129443;-38
2022/03/02 07:05:37;;;;;;;24.02;4.50;;;;;;;23.43;50.30;100378.25;7308658;19;130894;-39
2022/03/02 07:08:04;;;;;;;62.17;9.60;;;;;;;23.41;50.23;100376.72;7308685;19;130991;-40
2022/03/02 07:10:34;;;;;;;18.88;3.50;;;;;;;23.38;50.26;100367.31;7313515;19;130354;-38
2022/03/02 07:13:02;;;;;;;149.68;23.17;;;;;;;23.47;49.93;100379.63;7302914;19;130118;-41
2022/03/02 07:15:29;;;;;;;48.83;7.07;;;;;;;23.50;50.22;100376.78;7311246;19;130100;-37
2022/03/02 07:17:54;;;;;;;9.43;2.70;;;;;;;23.54;49.85;100372.91;7313737;19;130310;-38
2022/03/02 07:20:20;;;;;;;20.95;4.25;;;;;;;23.50;50.15;100366.28;7313831;19;129732;-38
2022/03/02 07:22:52;;;;;;;31.83;5.63;;;;;;;23.69;49.84;100376.81;7300394;19;130848;-38
2022/03/02 07:25:33;;;;;;;25.70;5.10;;;;;;;23.60;49.68;100361.06;7313654;19;129988;-39
2022/03/02 07:27:59;;;;;;;145.02;21.17;;;;;;;23.70;50.12;100373.22;7289349;19;129540;-39
2022/03/02 07:30:26;;;;;;;13.65;3.33;;;;;;;23.74;49.72;100379.88;7311797;19;130301;-40
2022/03/02 07:32:55;;;;;;;19.60;4.05;;;;;;;23.78;49.83;100380.44;7313050;19;129985;-38
2022/03/02 07:35:22;;;;;;;28.23;5.25;;;;;;;23.72;49.61;100366.03;7313482;19;129759;-40
2022/03/02 07:37:48;;;;;;;18.80;4.00;;;;;;;23.78;49.51;100369.94;7312368;19;131036;-40
2022/03/02 07:40:14;;;;;;;20.45;4.28;;;;;;;23.83;49.32;100381.69;7315085;19;133270;-41
2022/03/02 07:42:39;;;;;;;20.50;3.72;;;;;;;23.81;49.66;100383.63;7313772;19;129850;-40
2022/03/02 07:45:06;;;;;;;14.95;3.72;;;;;;;23.66;50.03;100371.84;7308880;19;140709;-37
2022/03/02 07:47:32;;;;;;;17.88;3.85;;;;;;;23.68;49.83;100392.72;7310803;19;133205;-38
2022/03/02 07:49:57;;;;;;;22.83;4.17;;;;;;;23.61;49.74;100387.16;7287725;19;131005;-40
2022/03/02 07:52:25;;;;;;;20.23;4.05;;;;;;;23.55;50.20;100379.00;7313190;19;129376;-38
2022/03/02 07:54:57;;;;;;;10.27;2.58;;;;;;;23.54;50.53;100378.16;7305621;19;130631;-41
2022/03/02 07:57:24;;;;;;;24.27;5.07;;;;;;;23.54;49.96;100372.91;7310296;19;130837;-41
2022/03/02 07:59:51;;;;;;;41.38;5.68;;;;;;;23.54;50.41;100375.53;7308058;19;129879;-38
2022/03/02 08:02:19;;;;;;;17.48;3.55;;;;;;;23.47;50.06;100368.34;7293749;19;131053;-39
2022/03/02 08:04:50;;;;;;;20.48;4.00;;;;;;;23.60;50.00;100368.94;7307584;19;129566;-40
2022/03/02 08:07:15;;;;;;;15.60;3.55;;;;;;;23.61;49.96;100373.19;7309131;19;130229;-40
2022/03/02 08:09:41;;;;;;;19.35;4.00;;;;;;;23.65;49.91;100375.41;7312249;19;141387;-40
2022/03/02 08:12:07;;;;;;;15.95;3.80;;;;;;;23.69;50.31;100376.81;7311467;19;129610;-39
2022/03/02 08:14:32;;;;;;;20.83;4.05;;;;;;;23.70;50.23;100383.72;7310721;19;129971;-40
2022/03/02 08:16:58;;;;;;;13.85;3.08;;;;;;;23.79;49.73;100382.09;7311863;19;135376;-39
2022/03/02 08:19:23;;;;;;;14.35;3.03;;;;;;;23.80;49.80;100371.44;7311867;19;141855;-38
2022/03/02 08:21:57;;;;;;;15.90;3.37;;;;;;;23.83;49.30;100376.44;7313389;19;129242;-38
2022/03/02 08:24:26;;;;;;;15.60;3.22;;;;;;;23.86;49.57;100373.56;7309383;19;129143;-40
2022/03/02 08:26:54;;;;;;;25.23;4.43;;;;;;;23.88;49.46;100371.59;7309482;19;130669;-41
2022/03/02 08:29:20;;;;;;;17.15;3.90;;;;;;;23.86;49.21;100368.31;7309565;19;132756;-39
2022/03/02 08:31:47;;;;;;;25.52;4.57;;;;;;;23.82;49.77;100369.53;7311549;19;129341;-37
2022/03/02 08:34:13;;;;;;;15.98;3.53;;;;;;;23.79;49.99;100361.09;7309053;19;129905;-40
2022/03/02 08:36:42;;;;;;;25.80;4.65;;;;;;;23.69;50.07;100350.56;7310810;19;129588;-38
2022/03/02 08:39:13;;;;;;;16.17;3.45;;;;;;;23.65;49.89;100358.84;7312081;19;129284;-41
2022/03/02 08:41:39;;;;;;;22.88;4.60;;;;;;;23.49;50.14;100343.59;7311002;19;128876;-40
2022/03/02 08:44:06;;;;;;;13.67;3.33;;;;;;;23.49;49.96;100335.72;7309142;19;131611;-40
2022/03/02 08:46:31;;;;;;;10.70;2.85;;;;;;;23.52;50.12;100351.19;7308569;19;129823;-40
2022/03/02 08:48:57;;;;;;;20.00;4.07;;;;;;;23.58;50.05;100342.81;7309973;19;129709;-39
2022/03/02 08:51:24;;;;;;;13.97;3.17;;;;;;;23.56;50.48;100344.72;7312309;19;129705;-39
2022/03/02 08:53:51;;;;;;;28.52;4.60;;;;;;;23.49;50.02;100334.88;7309758;19;130313;-40
2022/03/02 08:56:17;;;;;;;;;;;;;;;23.56;50.76;100333.41;7310891;19;130297;-38
2022/03/02 08:58:42;;;;;;;19.02;4.18;;;;;;;23.69;49.83;100340.06;7310519;19;130352;-40
2022/03/02 09:01:11;;;;;;;19.10;3.58;;;;;;;23.70;50.30;100341.72;7312311;19;129277;-39
2022/03/02 09:03:36;;;;;;;15.20;3.08;;;;;;;23.73;50.11;100338.00;7308862;19;129178;-39
2022/03/02 09:06:07;;;;;;;12.68;3.15;;;;;;;23.74;49.79;100348.38;7308772;19;154355;-41
2022/03/02 09:08:33;;;;;;;21.13;3.78;;;;;;;23.76;49.91;100341.19;7311619;19;129316;-40
2022/03/02 09:10:59;;;;;;;13.13;2.80;;;;;;;23.75;49.79;100342.13;7309523;19;131263;-39
2022/03/02 09:13:25;;;;;;;18.27;3.28;;;;;;;23.68;49.94;100337.56;7308740;19;129121;-38
2022/03/02 09:15:50;;;;;;;27.43;4.87;;;;;;;23.66;49.81;100329.84;7306880;19;130326;-38
2022/03/02 09:18:16;;;;;;;37.22;5.57;;;;;;;23.57;50.66;100322.75;7308539;19;157719;-39
2022/03/02 09:20:42;;;;;;;21.20;3.90;;;;;;;23.50;51.20;100328.69;7309460;19;146745;-38
2022/03/02 09:23:07;;;;;;;29.83;5.30;;;;;;;23.43;51.28;100324.94;7308657;19;128897;-38
2022/03/02 09:25:37;;;;;;;22.95;4.43;;;;;;;23.32;51.25;100307.50;7309719;19;130008;-39
2022/03/02 09:28:03;;;;;;;15.10;3.05;;;;;;;23.39;51.04;100327.00;7306577;19;131546;-39
2022/03/02 09:30:30;;;;;;;5.80;2.17;;;;;;;23.37;51.48;100318.41;7310483;19;129516;-38
2022/03/02 09:32:55;;;;;;;14.48;3.40;;;;;;;23.37;51.40;100323.66;7308779;19;129017;-38
2022/03/02 09:35:21;;;;;;;28.08;5.18;;;;;;;23.39;51.43;100323.56;7307910;19;158350;-40
2022/03/02 09:37:53;;;;;;;24.67;4.37;;;;;;;23.39;51.04;100315.69;7310428;19;129619;-40
2022/03/02 09:40:29;;;;;;;19.05;3.85;;;;;;;23.41;51.36;100308.47;7309305;19;129623;-40
2022/03/02 09:42:59;;;;;;;14.13;2.90;;;;;;;23.46;50.68;100301.88;7309377;19;129260;-41
2022/03/02 09:45:27;;;;;;;21.92;4.65;;;;;;;23.47;51.07;100298.28;7308508;19;130748;-38
2022/03/02 09:47:57;;;;;;;7.43;2.65;;;;;;;23.49;51.31;100312.09;7307764;19;129662;-40
2022/03/02 09:50:27;;;;;;;14.55;3.13;;;;;;;23.52;50.85;100306.59;7310580;19;129027;-39
2022/03/02 09:52:54;;;;;;;16.80;3.30;;;;;;;23.54;51.07;100304.66;7309032;19;129202;-38
2022/03/02 09:55:22;;;;;;;36.47;6.47;;;;;;;23.52;50.65;100314.47;7309063;19;130187;-38
2022/03/02 09:57:50;;;;;;;35.53;5.30;;;;;;;23.46;50.56;100306.28;7307791;19;130945;-39
2022/03/02 10:00:18;;;;;;;24.70;4.63;;;;;;;23.40;50.78;100305.06;7310953;19;129032;-38
2022/03/02 10:02:46;;;;;;;28.48;4.90;;;;;;;23.36;50.88;100300.19;7316015;19;128862;-38
2022/03/02 10:05:16;;;;;;;32.90;5.38;;;;;;;23.26;51.71;100302.75;7316356;19;131069;-39
2022/03/02 10:07:48;;;;;;;16.88;3.28;;;;;;;23.22;51.26;100294.31;7315359;19;130667;-39
2022/03/02 10:10:17;;;;;;;16.75;3.20;;;;;;;23.18;51.86;100298.19;7315790;19;128982;-41
2022/03/02 10:12:43;;;;;;;16.58;3.35;;;;;;;23.12;51.69;100282.94;7316407;19;129058;-38
2022/03/02 10:15:12;;;;;;;27.08;4.70;;;;;;;23.06;52.17;100278.25;7315285;19;131524;-38
2022/03/02 10:17:40;;;;;;;21.00;3.80;;;;;;;23.18;51.76;100292.09;7312885;19;130380;-41
2022/03/02 10:20:13;;;;;;;24.20;4.13;;;;;;;23.18;51.44;100294.72;7316353;19;129998;-40
2022/03/02 10:23:21;;;;;;;19.85;3.63;;;;;;;23.22;51.35;100293.50;7315662;19;130667;-38
2022/03/02 10:26:15;;;;;;;23.17;4.20;;;;;;;23.26;51.49;100289.63;7314551;19;130181;-39
2022/03/02 10:29:03;;;;;;;20.40;3.65;;;;;;;23.36;51.32;100284.44;7314797;19;129321;-38
2022/03/02 10:31:59;;;;;;;17.63;3.47;;;;;;;23.38;51.26;100280.72;7316455;19;129082;-38
2022/03/02 10:34:31;;;;;;;14.82;3.28;;;;;;;23.36;50.81;100273.94;7312455;19;129903;-40
2022/03/02 10:37:19;;;;;;;15.50;3.25;;;;;;;23.28;51.48;100260.66;7313519;19;130002;-40
2022/03/02 10:39:58;;;;;;;23.25;4.05;;;;;;;23.35;51.55;100267.88;7315255;19;130711;-39
2022/03/02 10:42:31;;;;;;;19.58;3.60;;;;;;;23.33;51.39;100269.81;7315423;19;129471;-38
2022/03/02 10:45:19;;;;;;;18.20;3.38;;;;;;;23.18;51.63;100271.13;7315154;19;129369;-37
2022/03/02 10:47:55;;;;;;;21.95;4.07;;;;;;;23.15;51.48;100271.38;7312710;19;129108;-39
2022/03/02 10:50:23;;;;;;;15.85;3.20;;;;;;;23.10;51.79;100266.53;7314996;19;130443;-39
2022/03/02 10:52:51;;;;;;;26.63;4.38;;;;;;;23.02;52.19;100268.16;7315358;19;129254;-39
2022/03/02 10:55:17;;;;;;;43.72;7.53;;;;;;;22.98;52.41;100269.38;7312349;19;130347;-40
2022/03/02 10:57:45;;;;;;;22.90;3.95;;;;;;;22.93;52.34;100261.91;7312626;19;131056;-39
2022/03/02 11:00:14;;;;;;;22.67;3.92;;;;;;;22.95;52.75;100261.78;7314533;19;129383;-38
2022/03/02 11:02:45;;;;;;;19.67;3.40;;;;;;;22.94;52.65;100262.75;7312034;19;129435;-37
2022/03/02 11:05:14;;;;;;;37.03;6.18;;;;;;;22.94;52.51;100252.28;7312388;19;130593;-40
2022/03/02 11:07:41;;;;;;;15.95;3.13;;;;;;;23.00;52.29;100255.19;7312550;19;129576;-38
2022/03/02 11:10:10;;;;;;;18.05;3.67;;;;;;;23.04;52.44;100248.69;7314860;19;129655;-38